Riverside, CA (92502)

2:46 PM PST on December 17, 2014 (GMT -0800)
Canyon Crest Golf (8th Hole) | Change Station
CLOSE
Current Station
Personal Weather Station
Location: Riverside, CA
Elevation: 1060 ft
Nearby Weather Stations
Active Advisory: Flash Flood Watch

Elev 1060 ft 33.95 °N, 117.33 °W | Updated 7 minutes ago

Mostly Cloudy
Mostly Cloudy
61.5 °F
Feels Like 61.5 °F
N
4.2
Wind Variable Wind from West

Today
High -- | Low -- °F
--% Chance of Precip.
Yesterday
High -- | Low -- °F
Precip. -- in
6:48 AM 4:42 PM
Waning Crescent, 19% visible
Pressure 30.01 in
Visibility 10.0 miles
Clouds Scattered Clouds 2900 ft
Mostly Cloudy 20000 ft
Dew Point 49 °F
Humidity 63%
Rainfall 0.33 in
Snow Depth Not available.
UV 1 out of 12
Pollen .90 out of 12
Air Quality Not available.
Flu Activity Not available.
METAR KRAL 172153Z VRB05KT 10SM SCT029 BKN200 16/08 A3004 RMK AO2 SLP163 T01560078

More Conditions Fewer Conditions

Pressure 30.01 in
Visibility 10.0 miles
Clouds Scattered Clouds 2900 ft
Mostly Cloudy 20000 ft
Dew Point 49 °F
Humidity 63%
Rainfall 0.33 in
Snow Depth Not available.
UV 1 out of 12
Pollen .90 out of 12
Air Quality Not available.
Flu Activity Not available.
METAR KRAL 172153Z VRB05KT 10SM SCT029 BKN200 16/08 A3004 RMK AO2 SLP163 T01560078

More Conditions Fewer Conditions

10-Day Weather Forecast

Almanac

Astronomy

Dec. 17, 2014 Rise Set
Actual Time
Civil Twilight
Nautical Twilight
Astronomical Twilight
Moon
Length of Visible Light
Length of Day
Tomorrow will be .
, % of the Moon is Illuminated

Today's Extremes

State Highs State Lows

Community

WunderPhotos

Upload Photos

1,778,813 photos uploaded!

WunderBlogs® & News

Nearby

Air Quality

  Air Quality AQ Index Pollutant
Not available.

Snow Depth

Station Depth Elevation

Earthquake Activity

City Distance Mag. Time & Date
Minimum magnitude displayed is 2.5.

Coastal Water Temperatures

Place Temperature

Nearby Weather Stations